sensor_id;sensor_type;location;lat;lon;timestamp;P1;durP1;ratioP1;P2;durP2;ratioP2
10031;SDS011;5056;44.272;19.892;2023-11-21T00:01:52;35.97;;;26.13;;
10031;SDS011;5056;44.272;19.892;2023-11-21T00:04:19;37.73;;;27.37;;
10031;SDS011;5056;44.272;19.892;2023-11-21T00:06:46;35.83;;;27.50;;
10031;SDS011;5056;44.272;19.892;2023-11-21T00:09:14;35.50;;;26.50;;
10031;SDS011;5056;44.272;19.892;2023-11-21T00:11:42;33.70;;;24.57;;
10031;SDS011;5056;44.272;19.892;2023-11-21T00:14:10;28.77;;;23.07;;
10031;SDS011;5056;44.272;19.892;2023-11-21T00:16:37;31.00;;;23.17;;
10031;SDS011;5056;44.272;19.892;2023-11-21T00:19:06;29.27;;;23.90;;
10031;SDS011;5056;44.272;19.892;2023-11-21T00:21:33;30.03;;;23.70;;
10031;SDS011;5056;44.272;19.892;2023-11-21T00:24:00;29.17;;;22.97;;
10031;SDS011;5056;44.272;19.892;2023-11-21T00:26:29;27.70;;;21.57;;
10031;SDS011;5056;44.272;19.892;2023-11-21T00:29:02;28.20;;;20.97;;
10031;SDS011;5056;44.272;19.892;2023-11-21T00:31:29;27.50;;;21.60;;
10031;SDS011;5056;44.272;19.892;2023-11-21T00:33:56;29.07;;;21.57;;
10031;SDS011;5056;44.272;19.892;2023-11-21T00:36:25;29.10;;;21.77;;
10031;SDS011;5056;44.272;19.892;2023-11-21T00:38:53;31.07;;;24.17;;
10031;SDS011;5056;44.272;19.892;2023-11-21T00:41:21;34.77;;;26.90;;
10031;SDS011;5056;44.272;19.892;2023-11-21T00:43:53;37.17;;;27.60;;
10031;SDS011;5056;44.272;19.892;2023-11-21T00:46:20;31.97;;;25.27;;
10031;SDS011;5056;44.272;19.892;2023-11-21T00:48:49;33.70;;;26.10;;
10031;SDS011;5056;44.272;19.892;2023-11-21T00:51:17;41.20;;;30.37;;
10031;SDS011;5056;44.272;19.892;2023-11-21T00:53:48;36.17;;;26.63;;
10031;SDS011;5056;44.272;19.892;2023-11-21T00:56:15;27.53;;;22.17;;
10031;SDS011;5056;44.272;19.892;2023-11-21T00:58:42;26.67;;;21.53;;
10031;SDS011;5056;44.272;19.892;2023-11-21T01:01:11;28.83;;;21.57;;
10031;SDS011;5056;44.272;19.892;2023-11-21T01:03:39;32.13;;;23.80;;
10031;SDS011;5056;44.272;19.892;2023-11-21T01:06:06;30.20;;;22.10;;
10031;SDS011;5056;44.272;19.892;2023-11-21T01:08:34;25.33;;;20.83;;
10031;SDS011;5056;44.272;19.892;2023-11-21T01:11:04;26.87;;;19.97;;
10031;SDS011;5056;44.272;19.892;2023-11-21T01:13:33;27.37;;;21.33;;
10031;SDS011;5056;44.272;19.892;2023-11-21T01:16:01;26.33;;;20.23;;
10031;SDS011;5056;44.272;19.892;2023-11-21T01:18:29;31.33;;;22.30;;
10031;SDS011;5056;44.272;19.892;2023-11-21T01:20:56;29.03;;;22.77;;
10031;SDS011;5056;44.272;19.892;2023-11-21T01:23:24;31.40;;;22.17;;
10031;SDS011;5056;44.272;19.892;2023-11-21T01:25:52;28.77;;;22.07;;
10031;SDS011;5056;44.272;19.892;2023-11-21T01:28:21;30.13;;;22.17;;
10031;SDS011;5056;44.272;19.892;2023-11-21T01:30:49;38.03;;;24.17;;
10031;SDS011;5056;44.272;19.892;2023-11-21T01:33:16;42.77;;;27.80;;
10031;SDS011;5056;44.272;19.892;2023-11-21T01:35:45;45.43;;;29.20;;
10031;SDS011;5056;44.272;19.892;2023-11-21T01:38:13;39.80;;;28.90;;
10031;SDS011;5056;44.272;19.892;2023-11-21T01:40:42;37.07;;;25.73;;
10031;SDS011;5056;44.272;19.892;2023-11-21T01:43:09;40.30;;;26.73;;
10031;SDS011;5056;44.272;19.892;2023-11-21T01:45:38;40.53;;;29.20;;
10031;SDS011;5056;44.272;19.892;2023-11-21T01:48:05;52.57;;;32.43;;
10031;SDS011;5056;44.272;19.892;2023-11-21T01:50:33;80.03;;;42.57;;
10031;SDS011;5056;44.272;19.892;2023-11-21T01:53:01;55.63;;;33.43;;
10031;SDS011;5056;44.272;19.892;2023-11-21T01:55:28;42.37;;;27.10;;
10031;SDS011;5056;44.272;19.892;2023-11-21T01:57:56;35.87;;;26.23;;
10031;SDS011;5056;44.272;19.892;2023-11-21T02:00:23;35.73;;;27.37;;
10031;SDS011;5056;44.272;19.892;2023-11-21T02:02:53;39.43;;;29.03;;
10031;SDS011;5056;44.272;19.892;2023-11-21T02:05:20;32.90;;;25.50;;
10031;SDS011;5056;44.272;19.892;2023-11-21T02:07:48;32.30;;;25.87;;
10031;SDS011;5056;44.272;19.892;2023-11-21T02:10:17;38.37;;;28.03;;
10031;SDS011;5056;44.272;19.892;2023-11-21T02:12:47;34.80;;;26.83;;
10031;SDS011;5056;44.272;19.892;2023-11-21T02:15:16;34.63;;;26.60;;
10031;SDS011;5056;44.272;19.892;2023-11-21T02:17:46;36.10;;;28.20;;
10031;SDS011;5056;44.272;19.892;2023-11-21T02:20:18;45.03;;;33.30;;
10031;SDS011;5056;44.272;19.892;2023-11-21T02:22:49;45.87;;;33.67;;
10031;SDS011;5056;44.272;19.892;2023-11-21T02:25:17;46.33;;;30.90;;
10031;SDS011;5056;44.272;19.892;2023-11-21T02:27:44;30.47;;;25.10;;
10031;SDS011;5056;44.272;19.892;2023-11-21T02:30:14;25.63;;;20.30;;
10031;SDS011;5056;44.272;19.892;2023-11-21T02:32:41;19.13;;;16.40;;
10031;SDS011;5056;44.272;19.892;2023-11-21T02:35:11;20.30;;;16.77;;
10031;SDS011;5056;44.272;19.892;2023-11-21T02:37:40;19.70;;;16.53;;
10031;SDS011;5056;44.272;19.892;2023-11-21T02:40:10;18.20;;;16.13;;
10031;SDS011;5056;44.272;19.892;2023-11-21T02:42:38;19.20;;;17.00;;
10031;SDS011;5056;44.272;19.892;2023-11-21T02:45:06;19.73;;;16.97;;
10031;SDS011;5056;44.272;19.892;2023-11-21T02:47:34;18.60;;;16.43;;
10031;SDS011;5056;44.272;19.892;2023-11-21T02:50:01;18.53;;;16.27;;
10031;SDS011;5056;44.272;19.892;2023-11-21T02:52:29;19.33;;;16.07;;
10031;SDS011;5056;44.272;19.892;2023-11-21T02:54:58;20.80;;;17.87;;
10031;SDS011;5056;44.272;19.892;2023-11-21T02:57:26;19.57;;;15.60;;
10031;SDS011;5056;44.272;19.892;2023-11-21T02:59:53;20.37;;;14.87;;
10031;SDS011;5056;44.272;19.892;2023-11-21T03:02:20;22.43;;;16.97;;
10031;SDS011;5056;44.272;19.892;2023-11-21T03:04:48;23.13;;;19.30;;
10031;SDS011;5056;44.272;19.892;2023-11-21T03:07:16;18.53;;;16.53;;
10031;SDS011;5056;44.272;19.892;2023-11-21T03:09:44;16.50;;;14.73;;
10031;SDS011;5056;44.272;19.892;2023-11-21T03:12:11;22.63;;;16.97;;
10031;SDS011;5056;44.272;19.892;2023-11-21T03:14:40;20.23;;;16.60;;
10031;SDS011;5056;44.272;19.892;2023-11-21T03:17:07;20.33;;;17.17;;
10031;SDS011;5056;44.272;19.892;2023-11-21T03:19:34;22.00;;;16.80;;
10031;SDS011;5056;44.272;19.892;2023-11-21T03:22:01;18.17;;;15.67;;
10031;SDS011;5056;44.272;19.892;2023-11-21T03:24:29;20.37;;;16.30;;
10031;SDS011;5056;44.272;19.892;2023-11-21T03:26:56;16.90;;;14.73;;
10031;SDS011;5056;44.272;19.892;2023-11-21T03:29:25;19.97;;;14.60;;
10031;SDS011;5056;44.272;19.892;2023-11-21T03:31:54;20.13;;;16.00;;
10031;SDS011;5056;44.272;19.892;2023-11-21T03:34:23;21.00;;;16.10;;
10031;SDS011;5056;44.272;19.892;2023-11-21T03:36:51;21.13;;;16.10;;
10031;SDS011;5056;44.272;19.892;2023-11-21T03:39:19;21.03;;;14.93;;
10031;SDS011;5056;44.272;19.892;2023-11-21T03:41:46;22.57;;;16.83;;
10031;SDS011;5056;44.272;19.892;2023-11-21T03:44:13;20.87;;;16.47;;
10031;SDS011;5056;44.272;19.892;2023-11-21T03:46:40;23.37;;;16.57;;
10031;SDS011;5056;44.272;19.892;2023-11-21T03:49:10;21.10;;;15.37;;
10031;SDS011;5056;44.272;19.892;2023-11-21T03:51:37;21.30;;;16.67;;
10031;SDS011;5056;44.272;19.892;2023-11-21T03:54:05;23.83;;;17.40;;
10031;SDS011;5056;44.272;19.892;2023-11-21T03:56:32;22.30;;;17.93;;
10031;SDS011;5056;44.272;19.892;2023-11-21T03:58:59;24.03;;;17.37;;
10031;SDS011;5056;44.272;19.892;2023-11-21T04:01:28;23.03;;;16.17;;
10031;SDS011;5056;44.272;19.892;2023-11-21T04:03:55;19.97;;;14.03;;
10031;SDS011;5056;44.272;19.892;2023-11-21T04:06:28;22.00;;;15.27;;
10031;SDS011;5056;44.272;19.892;2023-11-21T04:08:55;21.73;;;13.73;;
10031;SDS011;5056;44.272;19.892;2023-11-21T04:11:24;19.23;;;13.63;;
10031;SDS011;5056;44.272;19.892;2023-11-21T04:13:55;19.47;;;14.07;;
10031;SDS011;5056;44.272;19.892;2023-11-21T04:16:22;20.43;;;15.37;;
10031;SDS011;5056;44.272;19.892;2023-11-21T04:18:49;17.43;;;14.17;;
10031;SDS011;5056;44.272;19.892;2023-11-21T04:21:16;15.97;;;13.73;;
10031;SDS011;5056;44.272;19.892;2023-11-21T04:23:45;16.57;;;12.70;;
10031;SDS011;5056;44.272;19.892;2023-11-21T04:26:12;13.73;;;12.13;;
10031;SDS011;5056;44.272;19.892;2023-11-21T04:28:39;16.53;;;12.37;;
10031;SDS011;5056;44.272;19.892;2023-11-21T04:31:08;16.40;;;13.00;;
10031;SDS011;5056;44.272;19.892;2023-11-21T04:33:35;21.70;;;15.53;;
10031;SDS011;5056;44.272;19.892;2023-11-21T04:36:03;24.03;;;18.23;;
10031;SDS011;5056;44.272;19.892;2023-11-21T04:38:31;25.30;;;17.67;;
10031;SDS011;5056;44.272;19.892;2023-11-21T04:41:02;24.23;;;17.70;;
10031;SDS011;5056;44.272;19.892;2023-11-21T04:43:28;24.93;;;17.23;;
10031;SDS011;5056;44.272;19.892;2023-11-21T04:45:57;22.07;;;16.20;;
10031;SDS011;5056;44.272;19.892;2023-11-21T04:48:25;22.80;;;16.07;;
10031;SDS011;5056;44.272;19.892;2023-11-21T04:50:52;21.97;;;16.20;;
10031;SDS011;5056;44.272;19.892;2023-11-21T04:53:18;27.10;;;16.93;;
10031;SDS011;5056;44.272;19.892;2023-11-21T04:55:46;25.67;;;17.90;;
10031;SDS011;5056;44.272;19.892;2023-11-21T04:58:15;29.67;;;19.90;;
10031;SDS011;5056;44.272;19.892;2023-11-21T05:00:42;29.23;;;18.00;;
10031;SDS011;5056;44.272;19.892;2023-11-21T05:03:09;28.23;;;17.23;;
10031;SDS011;5056;44.272;19.892;2023-11-21T05:05:37;24.47;;;17.67;;
10031;SDS011;5056;44.272;19.892;2023-11-21T05:08:05;24.27;;;17.37;;
10031;SDS011;5056;44.272;19.892;2023-11-21T05:10:33;21.43;;;15.43;;
10031;SDS011;5056;44.272;19.892;2023-11-21T05:13:03;17.47;;;14.43;;
10031;SDS011;5056;44.272;19.892;2023-11-21T05:15:36;18.63;;;14.80;;
10031;SDS011;5056;44.272;19.892;2023-11-21T05:18:04;18.00;;;14.43;;
10031;SDS011;5056;44.272;19.892;2023-11-21T05:20:31;18.23;;;15.47;;
10031;SDS011;5056;44.272;19.892;2023-11-21T05:22:59;21.87;;;15.87;;
10031;SDS011;5056;44.272;19.892;2023-11-21T05:25:27;24.13;;;17.90;;
10031;SDS011;5056;44.272;19.892;2023-11-21T05:27:53;25.07;;;19.40;;
10031;SDS011;5056;44.272;19.892;2023-11-21T05:30:21;26.93;;;18.70;;
10031;SDS011;5056;44.272;19.892;2023-11-21T05:32:55;21.37;;;17.03;;
10031;SDS011;5056;44.272;19.892;2023-11-21T05:35:22;20.97;;;16.90;;
10031;SDS011;5056;44.272;19.892;2023-11-21T05:37:49;21.00;;;17.67;;
10031;SDS011;5056;44.272;19.892;2023-11-21T05:40:16;119.30;;;72.27;;
10031;SDS011;5056;44.272;19.892;2023-11-21T05:42:43;149.57;;;95.30;;
10031;SDS011;5056;44.272;19.892;2023-11-21T05:45:11;160.60;;;99.93;;
10031;SDS011;5056;44.272;19.892;2023-11-21T05:47:41;154.40;;;99.53;;
10031;SDS011;5056;44.272;19.892;2023-11-21T05:50:14;150.53;;;98.23;;
10031;SDS011;5056;44.272;19.892;2023-11-21T05:52:42;148.77;;;96.03;;
10031;SDS011;5056;44.272;19.892;2023-11-21T05:55:11;155.43;;;100.47;;
10031;SDS011;5056;44.272;19.892;2023-11-21T05:57:39;143.43;;;93.13;;
10031;SDS011;5056;44.272;19.892;2023-11-21T06:00:10;137.50;;;82.77;;
10031;SDS011;5056;44.272;19.892;2023-11-21T06:02:43;124.63;;;77.73;;
10031;SDS011;5056;44.272;19.892;2023-11-21T06:05:12;122.90;;;79.37;;
10031;SDS011;5056;44.272;19.892;2023-11-21T06:07:39;126.77;;;82.20;;
10031;SDS011;5056;44.272;19.892;2023-11-21T06:10:07;123.27;;;83.27;;
10031;SDS011;5056;44.272;19.892;2023-11-21T06:12:35;132.83;;;86.47;;
10031;SDS011;5056;44.272;19.892;2023-11-21T06:15:04;119.57;;;79.17;;
10031;SDS011;5056;44.272;19.892;2023-11-21T06:17:33;122.83;;;81.57;;
10031;SDS011;5056;44.272;19.892;2023-11-21T06:20:01;129.20;;;81.33;;
10031;SDS011;5056;44.272;19.892;2023-11-21T06:22:36;131.67;;;82.63;;
10031;SDS011;5056;44.272;19.892;2023-11-21T06:25:04;132.47;;;82.37;;
10031;SDS011;5056;44.272;19.892;2023-11-21T06:27:37;124.30;;;82.40;;
10031;SDS011;5056;44.272;19.892;2023-11-21T06:30:05;123.27;;;79.27;;
10031;SDS011;5056;44.272;19.892;2023-11-21T06:32:35;114.57;;;75.40;;
10031;SDS011;5056;44.272;19.892;2023-11-21T06:35:05;111.37;;;74.30;;
10031;SDS011;5056;44.272;19.892;2023-11-21T06:37:36;112.43;;;76.73;;
10031;SDS011;5056;44.272;19.892;2023-11-21T06:40:03;112.67;;;74.97;;
10031;SDS011;5056;44.272;19.892;2023-11-21T06:42:32;114.83;;;76.53;;
10031;SDS011;5056;44.272;19.892;2023-11-21T06:45:00;114.80;;;76.87;;
10031;SDS011;5056;44.272;19.892;2023-11-21T06:47:29;101.77;;;73.87;;
10031;SDS011;5056;44.272;19.892;2023-11-21T06:49:56;106.57;;;71.00;;
10031;SDS011;5056;44.272;19.892;2023-11-21T06:52:23;86.23;;;62.47;;
10031;SDS011;5056;44.272;19.892;2023-11-21T06:54:52;91.20;;;62.40;;
10031;SDS011;5056;44.272;19.892;2023-11-21T06:57:19;79.70;;;59.20;;
10031;SDS011;5056;44.272;19.892;2023-11-21T06:59:46;80.93;;;57.20;;
10031;SDS011;5056;44.272;19.892;2023-11-21T07:02:15;75.93;;;57.67;;
10031;SDS011;5056;44.272;19.892;2023-11-21T07:04:43;63.70;;;50.17;;
10031;SDS011;5056;44.272;19.892;2023-11-21T07:07:10;64.33;;;47.60;;
10031;SDS011;5056;44.272;19.892;2023-11-21T07:09:37;59.77;;;43.47;;
10031;SDS011;5056;44.272;19.892;2023-11-21T07:12:07;62.77;;;45.73;;
10031;SDS011;5056;44.272;19.892;2023-11-21T07:14:35;58.77;;;41.60;;
10031;SDS011;5056;44.272;19.892;2023-11-21T07:17:03;56.33;;;41.60;;
10031;SDS011;5056;44.272;19.892;2023-11-21T07:19:30;57.67;;;41.70;;
10031;SDS011;5056;44.272;19.892;2023-11-21T07:21:57;57.63;;;40.63;;
10031;SDS011;5056;44.272;19.892;2023-11-21T07:24:25;58.27;;;40.33;;
10031;SDS011;5056;44.272;19.892;2023-11-21T07:26:52;54.10;;;39.73;;
10031;SDS011;5056;44.272;19.892;2023-11-21T07:29:23;48.17;;;37.50;;
10031;SDS011;5056;44.272;19.892;2023-11-21T07:31:53;44.70;;;34.43;;
10031;SDS011;5056;44.272;19.892;2023-11-21T07:34:20;42.63;;;34.37;;
10031;SDS011;5056;44.272;19.892;2023-11-21T07:36:47;43.67;;;34.07;;
10031;SDS011;5056;44.272;19.892;2023-11-21T07:39:17;43.77;;;35.60;;
10031;SDS011;5056;44.272;19.892;2023-11-21T07:41:44;50.57;;;39.67;;
10031;SDS011;5056;44.272;19.892;2023-11-21T07:44:13;54.63;;;45.13;;
10031;SDS011;5056;44.272;19.892;2023-11-21T07:46:44;52.00;;;41.97;;
10031;SDS011;5056;44.272;19.892;2023-11-21T07:49:11;55.20;;;45.57;;
10031;SDS011;5056;44.272;19.892;2023-11-21T07:51:41;79.27;;;60.23;;
10031;SDS011;5056;44.272;19.892;2023-11-21T07:54:10;85.83;;;64.97;;
10031;SDS011;5056;44.272;19.892;2023-11-21T07:56:37;85.73;;;65.60;;
10031;SDS011;5056;44.272;19.892;2023-11-21T07:59:06;85.83;;;63.77;;
10031;SDS011;5056;44.272;19.892;2023-11-21T08:01:34;84.57;;;64.97;;
10031;SDS011;5056;44.272;19.892;2023-11-21T08:04:02;92.90;;;69.40;;
10031;SDS011;5056;44.272;19.892;2023-11-21T08:06:29;89.03;;;67.47;;
10031;SDS011;5056;44.272;19.892;2023-11-21T08:08:59;105.57;;;81.67;;
10031;SDS011;5056;44.272;19.892;2023-11-21T08:11:26;116.10;;;86.23;;
10031;SDS011;5056;44.272;19.892;2023-11-21T08:13:57;110.93;;;84.37;;
10031;SDS011;5056;44.272;19.892;2023-11-21T08:16:24;123.93;;;90.73;;
10031;SDS011;5056;44.272;19.892;2023-11-21T08:18:51;126.10;;;94.23;;
10031;SDS011;5056;44.272;19.892;2023-11-21T08:21:21;110.63;;;86.73;;
10031;SDS011;5056;44.272;19.892;2023-11-21T08:23:50;132.13;;;100.80;;
10031;SDS011;5056;44.272;19.892;2023-11-21T08:26:20;119.50;;;90.60;;
10031;SDS011;5056;44.272;19.892;2023-11-21T08:28:48;139.40;;;99.93;;
10031;SDS011;5056;44.272;19.892;2023-11-21T08:31:22;120.77;;;93.03;;
10031;SDS011;5056;44.272;19.892;2023-11-21T08:33:52;114.53;;;91.10;;
10031;SDS011;5056;44.272;19.892;2023-11-21T08:36:23;137.47;;;102.13;;
10031;SDS011;5056;44.272;19.892;2023-11-21T08:38:50;147.83;;;114.63;;
10031;SDS011;5056;44.272;19.892;2023-11-21T08:41:18;145.53;;;111.33;;
10031;SDS011;5056;44.272;19.892;2023-11-21T08:43:49;140.03;;;111.77;;
10031;SDS011;5056;44.272;19.892;2023-11-21T08:46:17;161.47;;;120.23;;
10031;SDS011;5056;44.272;19.892;2023-11-21T08:48:44;184.20;;;133.73;;
10031;SDS011;5056;44.272;19.892;2023-11-21T08:51:11;197.90;;;148.53;;
10031;SDS011;5056;44.272;19.892;2023-11-21T08:53:42;210.00;;;155.03;;
10031;SDS011;5056;44.272;19.892;2023-11-21T08:56:12;245.87;;;175.17;;
10031;SDS011;5056;44.272;19.892;2023-11-21T08:58:39;241.87;;;178.20;;
10031;SDS011;5056;44.272;19.892;2023-11-21T09:01:08;251.57;;;194.37;;
10031;SDS011;5056;44.272;19.892;2023-11-21T09:03:37;251.23;;;196.50;;
10031;SDS011;5056;44.272;19.892;2023-11-21T09:06:04;297.83;;;231.23;;
10031;SDS011;5056;44.272;19.892;2023-11-21T09:08:34;264.00;;;207.67;;
10031;SDS011;5056;44.272;19.892;2023-11-21T09:11:05;298.13;;;233.80;;
10031;SDS011;5056;44.272;19.892;2023-11-21T09:13:33;272.67;;;214.27;;
10031;SDS011;5056;44.272;19.892;2023-11-21T09:16:02;250.23;;;195.33;;
10031;SDS011;5056;44.272;19.892;2023-11-21T09:18:30;233.17;;;177.73;;
10031;SDS011;5056;44.272;19.892;2023-11-21T09:20:58;206.27;;;163.13;;
10031;SDS011;5056;44.272;19.892;2023-11-21T09:23:25;204.30;;;155.93;;
10031;SDS011;5056;44.272;19.892;2023-11-21T09:25:52;210.10;;;164.83;;
10031;SDS011;5056;44.272;19.892;2023-11-21T09:28:23;218.30;;;166.20;;
10031;SDS011;5056;44.272;19.892;2023-11-21T09:30:52;209.63;;;166.13;;
10031;SDS011;5056;44.272;19.892;2023-11-21T09:33:19;220.93;;;175.20;;
10031;SDS011;5056;44.272;19.892;2023-11-21T09:35:50;209.03;;;166.97;;
10031;SDS011;5056;44.272;19.892;2023-11-21T09:38:17;200.90;;;162.37;;
10031;SDS011;5056;44.272;19.892;2023-11-21T09:40:46;177.73;;;146.00;;
10031;SDS011;5056;44.272;19.892;2023-11-21T09:43:15;186.13;;;151.07;;
10031;SDS011;5056;44.272;19.892;2023-11-21T09:45:47;244.30;;;189.70;;
10031;SDS011;5056;44.272;19.892;2023-11-21T09:48:16;213.60;;;163.80;;
10031;SDS011;5056;44.272;19.892;2023-11-21T09:50:44;203.43;;;161.20;;
10031;SDS011;5056;44.272;19.892;2023-11-21T09:53:13;193.00;;;155.87;;
10031;SDS011;5056;44.272;19.892;2023-11-21T09:55:47;212.33;;;162.80;;
10031;SDS011;5056;44.272;19.892;2023-11-21T09:58:16;192.63;;;155.77;;
10031;SDS011;5056;44.272;19.892;2023-11-21T10:00:44;188.33;;;150.80;;
10031;SDS011;5056;44.272;19.892;2023-11-21T10:03:13;208.17;;;163.53;;
10031;SDS011;5056;44.272;19.892;2023-11-21T10:05:42;226.27;;;179.73;;
10031;SDS011;5056;44.272;19.892;2023-11-21T10:08:11;225.17;;;186.23;;
10031;SDS011;5056;44.272;19.892;2023-11-21T10:10:42;325.07;;;264.13;;
10031;SDS011;5056;44.272;19.892;2023-11-21T10:13:11;307.80;;;253.33;;
10031;SDS011;5056;44.272;19.892;2023-11-21T10:15:42;269.10;;;230.40;;
10031;SDS011;5056;44.272;19.892;2023-11-21T10:18:15;266.73;;;224.17;;
10031;SDS011;5056;44.272;19.892;2023-11-21T10:20:42;271.93;;;232.43;;
10031;SDS011;5056;44.272;19.892;2023-11-21T10:23:14;316.30;;;254.73;;
10031;SDS011;5056;44.272;19.892;2023-11-21T10:25:42;272.57;;;233.37;;
10031;SDS011;5056;44.272;19.892;2023-11-21T10:28:09;277.57;;;231.97;;
10031;SDS011;5056;44.272;19.892;2023-11-21T10:30:36;258.20;;;221.73;;
10031;SDS011;5056;44.272;19.892;2023-11-21T10:33:05;271.20;;;228.73;;
10031;SDS011;5056;44.272;19.892;2023-11-21T10:35:41;259.90;;;221.87;;
10031;SDS011;5056;44.272;19.892;2023-11-21T10:38:12;314.80;;;255.30;;
10031;SDS011;5056;44.272;19.892;2023-11-21T10:40:39;296.97;;;249.60;;
10031;SDS011;5056;44.272;19.892;2023-11-21T10:43:06;304.13;;;254.90;;
10031;SDS011;5056;44.272;19.892;2023-11-21T10:45:36;319.17;;;271.37;;
10031;SDS011;5056;44.272;19.892;2023-11-21T10:48:11;311.73;;;268.00;;
10031;SDS011;5056;44.272;19.892;2023-11-21T10:50:43;299.10;;;251.57;;
10031;SDS011;5056;44.272;19.892;2023-11-21T10:53:11;300.00;;;248.50;;
10031;SDS011;5056;44.272;19.892;2023-11-21T10:55:45;290.40;;;236.90;;
10031;SDS011;5056;44.272;19.892;2023-11-21T10:58:13;278.77;;;237.83;;
10031;SDS011;5056;44.272;19.892;2023-11-21T11:00:41;273.20;;;236.57;;
10031;SDS011;5056;44.272;19.892;2023-11-21T11:03:10;290.50;;;243.23;;
10031;SDS011;5056;44.272;19.892;2023-11-21T11:05:39;313.33;;;257.77;;
10031;SDS011;5056;44.272;19.892;2023-11-21T11:08:21;279.93;;;231.70;;
10031;SDS011;5056;44.272;19.892;2023-11-21T11:10:51;255.43;;;215.53;;
10031;SDS011;5056;44.272;19.892;2023-11-21T11:13:19;261.07;;;213.47;;
10031;SDS011;5056;44.272;19.892;2023-11-21T11:15:48;240.37;;;196.00;;
10031;SDS011;5056;44.272;19.892;2023-11-21T11:18:15;207.43;;;166.93;;
10031;SDS011;5056;44.272;19.892;2023-11-21T11:20:52;208.83;;;161.87;;
10031;SDS011;5056;44.272;19.892;2023-11-21T11:23:28;186.87;;;149.20;;
10031;SDS011;5056;44.272;19.892;2023-11-21T11:26:08;176.37;;;143.63;;
10031;SDS011;5056;44.272;19.892;2023-11-21T11:28:44;172.63;;;136.23;;
10031;SDS011;5056;44.272;19.892;2023-11-21T11:31:18;162.70;;;129.43;;
10031;SDS011;5056;44.272;19.892;2023-11-21T11:33:56;134.47;;;114.80;;
10031;SDS011;5056;44.272;19.892;2023-11-21T11:36:28;159.93;;;133.73;;
10031;SDS011;5056;44.272;19.892;2023-11-21T11:38:58;138.87;;;111.27;;
10031;SDS011;5056;44.272;19.892;2023-11-21T11:41:27;121.90;;;102.53;;
10031;SDS011;5056;44.272;19.892;2023-11-21T11:43:54;110.67;;;93.67;;
10031;SDS011;5056;44.272;19.892;2023-11-21T11:46:27;111.17;;;91.13;;
10031;SDS011;5056;44.272;19.892;2023-11-21T11:49:07;100.00;;;82.50;;
10031;SDS011;5056;44.272;19.892;2023-11-21T11:54:42;106.53;;;92.43;;
10031;SDS011;5056;44.272;19.892;2023-11-21T11:57:10;103.93;;;87.27;;
10031;SDS011;5056;44.272;19.892;2023-11-21T12:02:44;101.03;;;86.33;;
10031;SDS011;5056;44.272;19.892;2023-11-21T12:05:13;101.67;;;85.40;;
10031;SDS011;5056;44.272;19.892;2023-11-21T12:07:48;106.80;;;88.80;;
10031;SDS011;5056;44.272;19.892;2023-11-21T12:10:34;112.93;;;93.33;;
10031;SDS011;5056;44.272;19.892;2023-11-21T12:13:08;120.33;;;98.37;;
10031;SDS011;5056;44.272;19.892;2023-11-21T12:15:37;139.60;;;118.10;;
10031;SDS011;5056;44.272;19.892;2023-11-21T12:18:07;181.00;;;143.40;;
10031;SDS011;5056;44.272;19.892;2023-11-21T12:20:33;162.40;;;132.63;;
10031;SDS011;5056;44.272;19.892;2023-11-21T12:23:03;166.13;;;135.93;;
10031;SDS011;5056;44.272;19.892;2023-11-21T12:25:33;153.43;;;131.90;;
10031;SDS011;5056;44.272;19.892;2023-11-21T12:28:02;141.93;;;117.40;;
10031;SDS011;5056;44.272;19.892;2023-11-21T12:30:31;126.33;;;109.73;;
10031;SDS011;5056;44.272;19.892;2023-11-21T12:33:01;119.93;;;104.30;;
10031;SDS011;5056;44.272;19.892;2023-11-21T12:35:33;127.40;;;109.60;;
10031;SDS011;5056;44.272;19.892;2023-11-21T12:38:02;148.00;;;123.93;;
10031;SDS011;5056;44.272;19.892;2023-11-21T12:40:33;135.53;;;117.07;;
10031;SDS011;5056;44.272;19.892;2023-11-21T12:43:00;133.90;;;109.60;;
10031;SDS011;5056;44.272;19.892;2023-11-21T12:45:29;132.03;;;106.87;;
10031;SDS011;5056;44.272;19.892;2023-11-21T12:47:57;119.20;;;100.27;;
10031;SDS011;5056;44.272;19.892;2023-11-21T12:50:27;130.13;;;109.97;;
10031;SDS011;5056;44.272;19.892;2023-11-21T12:52:58;123.80;;;105.97;;
10031;SDS011;5056;44.272;19.892;2023-11-21T12:55:26;122.40;;;106.53;;
10031;SDS011;5056;44.272;19.892;2023-11-21T12:58:02;111.77;;;97.20;;
10031;SDS011;5056;44.272;19.892;2023-11-21T13:00:35;74.83;;;65.73;;
10031;SDS011;5056;44.272;19.892;2023-11-21T13:03:04;51.70;;;45.87;;
10031;SDS011;5056;44.272;19.892;2023-11-21T13:05:32;46.80;;;41.37;;
10031;SDS011;5056;44.272;19.892;2023-11-21T13:08:04;38.17;;;34.00;;
10031;SDS011;5056;44.272;19.892;2023-11-21T13:10:38;33.57;;;29.97;;
10031;SDS011;5056;44.272;19.892;2023-11-21T13:13:13;42.37;;;36.40;;
10031;SDS011;5056;44.272;19.892;2023-11-21T13:15:47;37.53;;;32.90;;
10031;SDS011;5056;44.272;19.892;2023-11-21T13:18:17;38.30;;;32.17;;
10031;SDS011;5056;44.272;19.892;2023-11-21T13:20:46;44.93;;;38.30;;
10031;SDS011;5056;44.272;19.892;2023-11-21T13:23:14;35.80;;;31.90;;
10031;SDS011;5056;44.272;19.892;2023-11-21T13:25:45;30.93;;;27.77;;
10031;SDS011;5056;44.272;19.892;2023-11-21T13:28:15;29.40;;;26.07;;
10031;SDS011;5056;44.272;19.892;2023-11-21T13:30:48;29.53;;;26.57;;
10031;SDS011;5056;44.272;19.892;2023-11-21T13:33:17;28.77;;;25.80;;
10031;SDS011;5056;44.272;19.892;2023-11-21T13:35:47;26.37;;;23.63;;
10031;SDS011;5056;44.272;19.892;2023-11-21T13:38:17;26.93;;;24.17;;
10031;SDS011;5056;44.272;19.892;2023-11-21T13:40:48;30.40;;;27.40;;
10031;SDS011;5056;44.272;19.892;2023-11-21T13:43:20;30.63;;;27.47;;
10031;SDS011;5056;44.272;19.892;2023-11-21T13:45:49;28.20;;;25.30;;
10031;SDS011;5056;44.272;19.892;2023-11-21T13:48:23;27.50;;;24.70;;
10031;SDS011;5056;44.272;19.892;2023-11-21T13:50:57;26.27;;;23.57;;
10031;SDS011;5056;44.272;19.892;2023-11-21T13:53:31;29.57;;;26.47;;
10031;SDS011;5056;44.272;19.892;2023-11-21T13:56:02;29.63;;;26.53;;
10031;SDS011;5056;44.272;19.892;2023-11-21T13:58:32;30.60;;;27.30;;
10031;SDS011;5056;44.272;19.892;2023-11-21T14:01:10;33.03;;;29.60;;
10031;SDS011;5056;44.272;19.892;2023-11-21T14:03:55;32.10;;;28.63;;
10031;SDS011;5056;44.272;19.892;2023-11-21T14:06:27;36.27;;;31.83;;
10031;SDS011;5056;44.272;19.892;2023-11-21T14:08:59;32.63;;;29.27;;
10031;SDS011;5056;44.272;19.892;2023-11-21T14:11:30;34.07;;;29.87;;
10031;SDS011;5056;44.272;19.892;2023-11-21T14:14:02;31.27;;;26.67;;
10031;SDS011;5056;44.272;19.892;2023-11-21T14:16:29;27.13;;;24.33;;
10031;SDS011;5056;44.272;19.892;2023-11-21T14:18:57;26.57;;;23.77;;
10031;SDS011;5056;44.272;19.892;2023-11-21T14:21:29;29.00;;;24.70;;
10031;SDS011;5056;44.272;19.892;2023-11-21T14:23:59;27.30;;;24.17;;
10031;SDS011;5056;44.272;19.892;2023-11-21T14:26:27;28.00;;;24.40;;
10031;SDS011;5056;44.272;19.892;2023-11-21T14:28:55;25.20;;;22.70;;
10031;SDS011;5056;44.272;19.892;2023-11-21T14:31:25;25.97;;;23.33;;